Time;durP1;ratioP1;P1;durP2;ratioP2;P2;SDS_P1;SDS_P2;PMS_P1;PMS_P2;Temp;Humidity;BMP_temperature;BMP_pressure;BME280_temperature;BME280_humidity;BME280_pressure;Samples;Min_cycle;Max_cycle;Signal;HPM_P1;HPM_P2
2021/05/30 00:00:51;;;;;;;2.23;2.03;;;;;;;;;;5092628;28;20456;-86
2021/05/30 00:03:18;;;;;;;1.53;1.43;;;7.80;99.90;;;;;;5092599;28;20881;-87
2021/05/30 00:05:44;;;;;;;1.90;1.77;;;7.80;99.90;;;;;;5092360;28;20451;-87
2021/05/30 00:08:13;;;;;;;2.70;1.90;;;7.80;99.90;;;;;;5095124;28;20457;-85
2021/05/30 00:10:40;;;;;;;2.20;1.67;;;;;;;;;;5092561;28;20444;-88
2021/05/30 00:13:06;;;;;;;1.93;1.50;;;;;;;;;;5092575;28;20440;-86
2021/05/30 00:15:33;;;;;;;1.93;1.73;;;;;;;;;;5092303;28;20444;-86
2021/05/30 00:18:00;;;;;;;2.80;1.80;;;;;;;;;;5092517;28;21074;-86
2021/05/30 00:20:26;;;;;;;3.80;1.70;;;;;;;;;;5091311;28;20444;-86
2021/05/30 00:22:53;;;;;;;2.17;1.70;;;;;;;;;;5092444;28;20939;-86
2021/05/30 00:25:20;;;;;;;2.30;1.73;;;7.70;99.90;;;;;;5092119;28;20448;-85
2021/05/30 00:27:48;;;;;;;3.60;1.80;;;7.50;99.90;;;;;;5092440;28;20448;-85
2021/05/30 00:30:16;;;;;;;2.23;1.97;;;7.50;99.90;;;;;;5092356;28;20452;-86
2021/05/30 00:32:42;;;;;;;3.90;2.23;;;;;;;;;;5092509;28;20448;-87
2021/05/30 00:35:10;;;;;;;3.10;1.93;;;7.50;99.90;;;;;;5091171;28;20445;-86
2021/05/30 00:37:36;;;;;;;2.20;1.77;;;;;;;;;;5092163;28;20480;-86
2021/05/30 00:40:04;;;;;;;1.83;1.70;;;7.50;99.90;;;;;;5092369;28;20452;-86
2021/05/30 00:42:31;;;;;;;2.90;1.70;;;7.30;99.90;;;;;;5089318;28;20469;-86
2021/05/30 00:44:58;;;;;;;2.47;1.83;;;7.40;99.90;;;;;;5092603;28;20476;-86
2021/05/30 00:47:24;;;;;;;1.83;1.70;;;;;;;;;;5092259;28;20491;-85
2021/05/30 00:49:51;;;;;;;2.20;2.00;;;7.50;99.90;;;;;;5091097;28;20456;-86
2021/05/30 00:52:17;;;;;;;3.80;2.10;;;;;;;;;;5092285;28;20558;-86
2021/05/30 00:54:44;;;;;;;3.43;2.00;;;;;;;;;;5092572;28;20505;-86
2021/05/30 00:57:11;;;;;;;2.00;1.90;;;;;;;;;;5092469;28;20503;-86
2021/05/30 00:59:38;;;;;;;2.00;1.80;;;7.40;99.90;;;;;;5093571;28;20444;-86
2021/05/30 01:02:05;;;;;;;2.60;2.40;;;;;;;;;;5104191;28;20441;-86
2021/05/30 01:04:32;;;;;;;3.00;2.60;;;7.40;99.90;;;;;;5098779;28;20445;-86
2021/05/30 01:07:00;;;;;;;2.10;1.90;;;7.10;99.90;;;;;;5095801;28;20509;-86
2021/05/30 01:09:31;;;;;;;2.43;2.00;;;;;;;;;;5095727;28;20448;-86
2021/05/30 01:11:57;;;;;;;1.90;1.80;;;;;;;;;;5095530;28;20835;-86
2021/05/30 01:14:24;;;;;;;1.70;1.60;;;;;;;;;;5095547;28;20445;-86
2021/05/30 01:16:51;;;;;;;1.90;1.70;;;7.20;99.90;;;;;;5095477;28;20433;-88
2021/05/30 01:19:20;;;;;;;2.10;1.83;;;7.10;99.90;;;;;;5094174;28;20488;-86
2021/05/30 01:21:47;;;;;;;2.00;1.77;;;7.20;99.90;;;;;;5095603;28;20791;-87
2021/05/30 01:24:15;;;;;;;4.73;1.77;;;7.00;99.90;;;;;;5095331;28;20457;-87
2021/05/30 01:26:42;;;;;;;2.60;2.20;;;7.20;99.90;;;;;;5095288;28;20453;-86
2021/05/30 01:29:09;;;;;;;2.23;2.00;;;;;;;;;;5095255;28;20649;-86
2021/05/30 01:31:36;;;;;;;4.17;2.20;;;;;;;;;;5095339;28;20441;-87
2021/05/30 01:34:02;;;;;;;1.87;1.70;;;;;;;;;;5093962;28;20429;-86
2021/05/30 01:36:29;;;;;;;2.20;2.00;;;;;;;;;;5096334;28;20673;-86
2021/05/30 01:38:56;;;;;;;2.23;2.03;;;;;;;;;;5095030;28;20495;-87
2021/05/30 01:41:23;;;;;;;2.50;1.97;;;7.20;99.90;;;;;;5095020;28;20795;-86
2021/05/30 01:43:57;;;;;;;4.57;2.73;;;7.10;99.90;;;;;;5099500;28;20441;-90
2021/05/30 01:46:23;;;;;;;2.20;2.00;;;;;;;;;;5103978;28;20457;-86
2021/05/30 01:48:53;;;;;;;2.00;1.77;;;7.00;99.90;;;;;;5103606;27;20809;-87
2021/05/30 01:51:20;;;;;;;2.53;2.20;;;6.80;99.90;;;;;;5105716;27;20445;-87
2021/05/30 01:53:51;;;;;;;2.50;2.30;;;;;;;;;;5106777;27;20514;-88
2021/05/30 01:59:06;;;;;;;1.90;1.77;;;7.00;99.90;;;;;;5103744;28;20979;-88
2021/05/30 02:01:37;;;;;;;2.50;1.97;;;6.50;99.90;;;;;;5104203;28;20934;-86
2021/05/30 02:04:11;;;;;;;3.10;2.20;;;7.10;99.90;;;;;;5102165;28;20452;-87
2021/05/30 02:06:41;;;;;;;2.53;2.03;;;6.80;99.90;;;;;;5103193;28;20437;-86
2021/05/30 02:09:11;;;;;;;2.13;1.80;;;6.80;99.90;;;;;;5104819;28;20516;-88
2021/05/30 02:11:42;;;;;;;2.13;1.93;;;6.80;99.90;;;;;;5105010;28;20456;-87
2021/05/30 02:14:10;;;;;;;2.27;2.07;;;6.80;99.90;;;;;;5103601;28;20493;-88
2021/05/30 02:16:38;;;;;;;3.23;2.37;;;6.90;99.90;;;;;;5103211;28;20451;-87
2021/05/30 02:19:05;;;;;;;2.90;2.60;;;;;;;;;;5102185;28;20634;-88
2021/05/30 02:21:40;;;;;;;4.90;2.70;;;7.00;99.90;;;;;;5102934;28;20512;-88
2021/05/30 02:24:09;;;;;;;2.17;1.97;;;7.00;99.90;;;;;;5102400;28;20444;-85
2021/05/30 02:26:36;;;;;;;8.07;2.23;;;6.90;99.90;;;;;;5103266;28;20444;-87
2021/05/30 02:29:07;;;;;;;2.53;2.33;;;6.90;99.90;;;;;;5102832;28;20453;-88
2021/05/30 02:31:34;;;;;;;2.73;2.20;;;6.90;99.90;;;;;;5103429;28;20519;-89
2021/05/30 02:34:02;;;;;;;2.67;1.90;;;;;;;;;;5103563;28;20444;-87
2021/05/30 02:36:28;;;;;;;2.60;2.40;;;;;;;;;;5103704;28;20441;-85
2021/05/30 02:38:56;;;;;;;2.27;2.13;;;;;;;;;;5102739;28;20475;-88
2021/05/30 02:41:23;;;;;;;3.57;2.40;;;;;;;;;;5104738;28;20436;-87
2021/05/30 02:43:50;;;;;;;2.40;2.20;;;;;;;;;;5103540;28;20533;-87
2021/05/30 02:46:17;;;;;;;2.60;2.40;;;;;;;;;;5102754;28;20974;-87
2021/05/30 02:48:44;;;;;;;3.63;2.33;;;6.90;99.90;;;;;;5101346;28;20441;-87
2021/05/30 02:51:10;;;;;;;5.50;2.43;;;;;;;;;;5114118;28;20858;-86
2021/05/30 02:53:37;;;;;;;2.53;2.33;;;;;;;;;;5113977;28;20440;-86
2021/05/30 02:56:04;;;;;;;4.40;2.93;;;6.60;99.90;;;;;;5114039;28;20797;-84
2021/05/30 02:58:31;;;;;;;2.63;2.37;;;6.70;99.90;;;;;;5113675;28;20507;-85
2021/05/30 03:00:58;;;;;;;3.00;2.43;;;;;;;;;;5113967;28;20509;-85
2021/05/30 03:03:24;;;;;;;3.37;2.73;;;;;;;;;;5113518;28;20455;-85
2021/05/30 03:05:51;;;;;;;2.97;2.40;;;6.60;99.90;;;;;;5113567;28;20432;-84
2021/05/30 03:08:18;;;;;;;3.20;2.60;;;6.30;99.90;;;;;;5103511;28;20451;-85
2021/05/30 03:10:45;;;;;;;8.33;2.30;;;;;;;;;;5103929;28;20436;-86
2021/05/30 03:13:11;;;;;;;3.13;2.80;;;;;;;;;;5101913;28;20441;-86
2021/05/30 03:15:39;;;;;;;2.33;2.13;;;;;;;;;;5102621;28;20428;-86
2021/05/30 03:18:06;;;;;;;3.30;2.90;;;7.00;99.90;;;;;;5103889;28;20476;-87
2021/05/30 03:20:32;;;;;;;2.90;2.60;;;;;;;;;;5101254;28;20461;-87
2021/05/30 03:22:59;;;;;;;3.33;3.03;;;6.40;99.90;;;;;;5102006;28;20436;-87
2021/05/30 03:25:26;;;;;;;2.73;2.33;;;;;;;;;;5103870;28;20440;-87
2021/05/30 03:27:53;;;;;;;3.10;2.27;;;;;;;;;;5102024;28;20441;-87
2021/05/30 03:30:19;;;;;;;3.10;2.80;;;6.40;99.90;;;;;;5102304;28;20446;-86
2021/05/30 03:32:46;;;;;;;4.23;2.83;;;;;;;;;;5103772;28;20436;-87
2021/05/30 03:35:12;;;;;;;3.40;2.60;;;6.50;99.90;;;;;;5101164;28;20448;-85
2021/05/30 03:37:39;;;;;;;5.80;2.60;;;;;;;;;;5102091;28;20844;-87
2021/05/30 03:40:16;;;;;;;2.63;2.30;;;6.30;99.90;;;;;;5103408;28;20862;-85
2021/05/30 03:42:48;;;;;;;2.90;2.10;;;;;;;;;;5095223;28;20918;-86
2021/05/30 03:45:15;;;;;;;2.97;2.67;;;;;;;;;;5092893;28;20480;-85
2021/05/30 03:47:41;;;;;;;3.07;2.30;;;;;;;;;;5093065;28;20477;-87
2021/05/30 03:50:09;;;;;;;4.40;2.63;;;6.30;99.90;;;;;;5091791;28;20441;-87
2021/05/30 03:52:36;;;;;;;3.23;2.90;;;;;;;;;;5092700;28;20463;-86
2021/05/30 03:55:02;;;;;;;2.80;2.50;;;;;;;;;;5092367;28;20836;-86
2021/05/30 03:57:32;;;;;;;3.13;2.57;;;5.90;99.90;;;;;;5095091;27;20484;-86
2021/05/30 03:59:59;;;;;;;3.37;3.07;;;;;;;;;;5092851;28;20531;-86
2021/05/30 04:02:25;;;;;;;3.10;2.77;;;6.00;99.90;;;;;;5092788;28;20836;-85
2021/05/30 04:04:52;;;;;;;3.30;3.00;;;;;;;;;;5091423;28;20485;-87
2021/05/30 04:07:18;;;;;;;4.90;2.70;;;;;;;;;;5092578;28;20438;-87
2021/05/30 04:09:45;;;;;;;2.87;2.60;;;6.60;99.90;;;;;;5092567;28;20452;-86
2021/05/30 04:12:11;;;;;;;2.87;2.57;;;;;;;;;;5092582;28;20760;-86
2021/05/30 04:14:39;;;;;;;3.00;2.60;;;6.50;99.90;;;;;;5092546;28;20436;-86
2021/05/30 04:17:05;;;;;;;3.13;2.83;;;6.70;99.90;;;;;;5095557;28;20443;-85
2021/05/30 04:19:32;;;;;;;4.50;3.50;;;;;;;;;;5103334;28;20488;-86
2021/05/30 04:21:58;;;;;;;3.80;2.87;;;7.20;99.90;;;;;;5096181;28;20445;-86
2021/05/30 04:24:24;;;;;;;5.57;3.40;;;7.00;99.90;;;;;;5092558;28;20456;-85
2021/05/30 04:26:51;;;;;;;3.03;2.73;;;;;;;;;;5092431;28;20445;-86
2021/05/30 04:29:17;;;;;;;4.47;3.03;;;7.30;99.90;;;;;;5092512;28;20811;-87
2021/05/30 04:31:45;;;;;;;4.37;3.30;;;7.10;99.90;;;;;;5092414;28;20452;-86
2021/05/30 04:34:11;;;;;;;3.50;3.20;;;;;;;;;;5091165;28;20453;-85
2021/05/30 04:36:38;;;;;;;3.70;3.30;;;;;;;;;;5093090;28;20861;-85
2021/05/30 04:39:05;;;;;;;3.50;3.20;;;7.50;99.90;;;;;;5093015;28;20545;-86
2021/05/30 04:41:31;;;;;;;4.50;3.90;;;;;;;;;;5096149;28;20456;-86
2021/05/30 04:43:58;;;;;;;3.53;3.23;;;8.10;99.90;;;;;;5096352;28;20951;-86
2021/05/30 04:46:24;;;;;;;4.67;4.00;;;8.20;99.90;;;;;;5095992;28;20465;-87
2021/05/30 04:48:51;;;;;;;4.03;3.53;;;8.10;99.90;;;;;;5094740;28;20452;-86
2021/05/30 04:51:17;;;;;;;4.37;3.80;;;8.50;99.90;;;;;;5095687;28;20509;-86
2021/05/30 04:53:45;;;;;;;4.37;3.30;;;8.50;99.90;;;;;;5095979;28;20457;-85
2021/05/30 04:56:15;;;;;;;4.30;3.73;;;8.60;99.90;;;;;;5095834;28;20475;-86
2021/05/30 04:58:41;;;;;;;5.00;3.77;;;9.00;99.90;;;;;;5095844;28;20974;-86
2021/05/30 05:01:08;;;;;;;3.60;3.27;;;;;;;;;;5099300;28;20449;-85
2021/05/30 05:03:35;;;;;;;4.70;3.87;;;;;;;;;;5105848;27;20443;-87
2021/05/30 05:06:07;;;;;;;3.87;3.20;;;9.10;99.90;;;;;;5103948;28;20454;-88
2021/05/30 05:08:34;;;;;;;4.00;3.60;;;;;;;;;;5105397;28;20433;-87
2021/05/30 05:11:00;;;;;;;4.33;3.80;;;;;;;;;;5104512;28;20443;-88
2021/05/30 05:13:27;;;;;;;4.83;3.70;;;;;;;;;;5095586;28;20492;-87
2021/05/30 05:15:54;;;;;;;3.87;3.50;;;9.80;99.90;;;;;;5095818;28;20463;-86
2021/05/30 05:18:22;;;;;;;3.90;3.27;;;10.00;99.90;;;;;;5095384;28;20492;-87
2021/05/30 05:20:49;;;;;;;4.83;3.80;;;;;;;;;;5094396;28;20445;-88
2021/05/30 05:23:18;;;;;;;3.67;3.37;;;10.70;99.90;;;;;;5096342;28;20480;-87
2021/05/30 05:25:45;;;;;;;3.67;3.30;;;;;;;;;;5113987;28;20443;-87
2021/05/30 05:28:11;;;;;;;5.53;3.93;;;;;;;;;;5115265;28;20455;-87
2021/05/30 05:30:38;;;;;;;3.80;3.33;;;11.30;99.90;;;;;;5113854;28;20444;-87
2021/05/30 05:33:05;;;;;;;6.63;3.30;;;11.70;99.90;;;;;;5115228;28;20519;-88
2021/05/30 05:35:31;;;;;;;4.53;3.30;;;;;;;;;;5114031;28;20444;-87
2021/05/30 05:37:59;;;;;;;4.00;3.60;;;12.50;99.90;;;;;;5115135;28;20505;-87
2021/05/30 05:40:28;;;;;;;4.00;3.70;;;12.90;99.90;;;;;;5097144;28;20435;-87
2021/05/30 05:42:55;;;;;;;3.27;2.90;;;13.20;99.90;;;;;;5114806;28;20508;-87
2021/05/30 05:45:24;;;;;;;3.10;2.80;;;13.40;99.90;;;;;;5115060;28;20467;-87
2021/05/30 05:47:51;;;;;;;4.10;3.70;;;14.10;99.90;;;;;;5115068;28;20500;-84
2021/05/30 05:50:20;;;;;;;3.70;3.40;;;14.00;99.90;;;;;;5113221;28;20443;-85
2021/05/30 05:52:47;;;;;;;4.50;3.17;;;14.70;99.90;;;;;;5114811;28;20547;-85
2021/05/30 05:55:14;;;;;;;3.50;3.20;;;14.80;99.90;;;;;;5114785;28;20818;-85
2021/05/30 05:57:43;;;;;;;3.90;3.50;;;15.00;99.90;;;;;;5114821;28;20479;-86
2021/05/30 06:00:13;;;;;;;5.67;3.23;;;15.30;99.90;;;;;;5115022;28;20448;-86
2021/05/30 06:02:39;;;;;;;3.33;2.97;;;15.10;99.90;;;;;;5115008;28;20489;-84
2021/05/30 06:05:07;;;;;;;3.90;2.90;;;15.40;99.90;;;;;;5113740;28;20805;-84
2021/05/30 06:07:33;;;;;;;3.93;3.10;;;;;;;;;;5115263;28;20500;-85
2021/05/30 06:10:00;;;;;;;3.10;2.90;;;15.70;99.90;;;;;;5115652;28;20444;-85
2021/05/30 06:12:27;;;;;;;3.50;3.20;;;;;;;;;;5114875;28;20466;-85
2021/05/30 06:14:54;;;;;;;3.43;3.13;;;16.00;98.90;;;;;;5114923;28;20440;-86
2021/05/30 06:17:22;;;;;;;3.87;3.50;;;;;;;;;;5114723;28;20455;-85
2021/05/30 06:19:48;;;;;;;2.90;2.70;;;16.40;99.90;;;;;;5105642;28;20495;-86
2021/05/30 06:22:16;;;;;;;3.33;3.03;;;16.90;99.90;;;;;;5096854;27;20498;-86
2021/05/30 06:24:43;;;;;;;3.50;3.20;;;16.20;96.60;;;;;;5101978;28;20436;-87
2021/05/30 06:27:10;;;;;;;4.13;3.80;;;16.60;99.90;;;;;;5103712;28;20453;-88
2021/05/30 06:29:36;;;;;;;3.60;3.20;;;16.60;99.90;;;;;;5103121;28;20436;-88
2021/05/30 06:32:04;;;;;;;3.30;3.00;;;16.70;99.90;;;;;;5104717;28;20875;-87
2021/05/30 06:34:30;;;;;;;3.97;3.40;;;16.70;99.90;;;;;;5102542;28;20448;-88
2021/05/30 06:36:57;;;;;;;3.40;3.10;;;16.50;99.90;;;;;;5102728;28;20507;-87
2021/05/30 06:39:24;;;;;;;3.40;3.10;;;16.80;99.90;;;;;;5093236;28;20496;-87
2021/05/30 06:41:51;;;;;;;3.50;3.20;;;16.90;99.90;;;;;;5094079;28;20445;-87
2021/05/30 06:44:17;;;;;;;4.97;3.17;;;;;;;;;;5090542;28;20799;-88
2021/05/30 06:46:44;;;;;;;2.73;2.40;;;17.60;99.90;;;;;;5093333;28;20944;-86
2021/05/30 06:49:11;;;;;;;3.10;2.50;;;18.30;91.50;;;;;;5091403;28;20465;-87
2021/05/30 06:51:38;;;;;;;3.17;2.50;;;17.10;97.50;;;;;;5100039;28;21742;-86
2021/05/30 06:54:06;;;;;;;5.20;2.13;;;16.30;97.80;;;;;;5101278;28;20444;-85
2021/05/30 06:56:34;;;;;;;2.50;2.30;;;;;;;;;;5102223;28;20962;-87
2021/05/30 06:59:00;;;;;;;2.37;2.17;;;16.50;99.90;;;;;;5104570;28;20894;-88
2021/05/30 07:01:27;;;;;;;3.13;2.60;;;17.00;99.90;;;;;;5101689;28;20441;-85
2021/05/30 07:03:53;;;;;;;3.33;2.63;;;;;;;;;;5101861;28;20452;-85
2021/05/30 07:06:22;;;;;;;2.60;2.40;;;17.70;90.50;;;;;;5102574;28;20505;-85
2021/05/30 07:08:49;;;;;;;2.63;2.27;;;16.90;98.90;;;;;;5101203;28;20440;-86
2021/05/30 07:11:16;;;;;;;2.47;2.27;;;16.60;95.70;;;;;;5103618;28;20465;-85
2021/05/30 07:13:52;;;;;;;2.80;2.47;;;;;;;;;;5110569;28;20448;-84
2021/05/30 07:16:21;;;;;;;3.17;2.70;;;17.00;99.90;;;;;;5092632;28;20445;-84
2021/05/30 07:18:48;;;;;;;3.17;2.40;;;;;;;;;;5091654;28;21410;-85
2021/05/30 07:21:14;;;;;;;2.80;2.60;;;;;;;;;;5093138;28;20449;-89
2021/05/30 07:23:42;;;;;;;3.30;2.63;;;16.50;89.50;;;;;;5093369;28;20453;-85
2021/05/30 07:26:09;;;;;;;2.40;2.20;;;16.80;98.50;;;;;;5093263;28;20449;-85
2021/05/30 07:28:35;;;;;;;2.73;2.53;;;16.50;90.00;;;;;;5093453;28;20779;-85
2021/05/30 07:31:02;;;;;;;3.93;2.47;;;16.60;89.30;;;;;;5099003;28;20441;-86
2021/05/30 07:33:29;;;;;;;2.93;2.63;;;16.90;88.50;;;;;;5100464;28;20494;-87
2021/05/30 07:35:55;;;;;;;2.70;2.50;;;;;;;;;;5092307;28;20455;-88
2021/05/30 07:38:22;;;;;;;4.53;2.80;;;17.90;99.90;;;;;;5092493;28;20510;-85
2021/05/30 07:40:50;;;;;;;2.83;2.60;;;17.60;87.90;;;;;;5092816;28;20448;-86
2021/05/30 07:43:17;;;;;;;2.50;2.30;;;;;;;;;;5092741;28;20531;-86
2021/05/30 07:45:44;;;;;;;2.40;2.20;;;18.30;90.50;;;;;;5092717;28;20453;-86
2021/05/30 07:48:10;;;;;;;2.20;2.00;;;18.50;98.30;;;;;;5092809;28;20449;-85
2021/05/30 07:50:37;;;;;;;3.63;2.20;;;18.10;94.80;;;;;;5091111;28;20464;-86
2021/05/30 07:53:03;;;;;;;3.67;2.70;;;18.40;96.10;;;;;;5092665;28;20471;-84
2021/05/30 07:55:30;;;;;;;2.80;2.50;;;;;;;;;;5092616;28;20468;-83
2021/05/30 07:57:58;;;;;;;3.20;2.63;;;18.50;92.70;;;;;;5092391;28;20480;-83
2021/05/30 08:00:25;;;;;;;2.40;2.30;;;18.60;78.90;;;;;;5092523;28;20448;-85
2021/05/30 08:02:53;;;;;;;2.40;2.20;;;18.50;80.00;;;;;;5092480;28;20448;-84
2021/05/30 08:05:21;;;;;;;2.50;2.30;;;18.70;95.50;;;;;;5091250;28;20593;-87
2021/05/30 08:07:48;;;;;;;1.87;1.77;;;18.30;94.20;;;;;;5092127;28;20494;-86
2021/05/30 08:10:15;;;;;;;3.87;2.30;;;;;;;;;;5092451;28;20440;-88
2021/05/30 08:12:42;;;;;;;4.30;2.47;;;19.80;97.20;;;;;;5092488;28;20445;-84
2021/05/30 08:15:11;;;;;;;2.67;2.43;;;19.80;94.30;;;;;;5096180;28;20445;-84
2021/05/30 08:17:39;;;;;;;2.73;2.53;;;19.90;94.70;;;;;;5096448;28;20440;-88
2021/05/30 08:20:07;;;;;;;3.30;3.00;;;20.10;92.50;;;;;;5094977;28;20487;-84
2021/05/30 08:22:34;;;;;;;5.70;2.70;;;;;;;;;;5096595;28;20445;-84
2021/05/30 08:25:01;;;;;;;3.47;2.63;;;20.00;90.60;;;;;;5096585;28;20445;-85
2021/05/30 08:27:28;;;;;;;3.13;2.77;;;19.50;93.30;;;;;;5096394;28;20448;-85
2021/05/30 08:29:54;;;;;;;2.53;2.33;;;19.00;96.60;;;;;;5094051;28;20449;-84
2021/05/30 08:32:22;;;;;;;3.20;2.87;;;19.00;98.50;;;;;;5096232;28;20452;-85
2021/05/30 08:34:49;;;;;;;4.37;3.13;;;;;;;;;;5095085;28;20460;-85
2021/05/30 08:37:18;;;;;;;4.10;2.80;;;20.60;94.10;;;;;;5096363;28;20449;-84
2021/05/30 08:39:44;;;;;;;3.13;2.40;;;19.80;91.30;;;;;;5094126;28;20495;-84
2021/05/30 08:42:10;;;;;;;2.47;2.20;;;19.70;95.20;;;;;;5093858;28;20456;-85
2021/05/30 08:44:37;;;;;;;2.13;1.93;;;;;;;;;;5096327;28;20802;-87
2021/05/30 08:47:04;;;;;;;4.10;1.67;;;19.10;83.10;;;;;;5096227;28;20456;-86
2021/05/30 08:49:31;;;;;;;2.40;1.80;;;19.20;68.00;;;;;;5095196;28;20449;-85
2021/05/30 08:51:57;;;;;;;2.30;2.10;;;18.20;79.20;;;;;;5096505;28;20440;-87
2021/05/30 08:54:24;;;;;;;4.60;2.30;;;19.20;93.50;;;;;;5096158;28;20496;-83
2021/05/30 08:56:51;;;;;;;2.60;2.40;;;;;;;;;;5095859;28;20602;-89
2021/05/30 08:59:27;;;;;;;2.60;2.40;;;18.60;70.70;;;;;;5095972;28;20997;-87
2021/05/30 09:01:54;;;;;;;2.33;2.13;;;;;;;;;;5096497;28;20850;-85
2021/05/30 09:04:30;;;;;;;2.10;1.90;;;19.10;70.20;;;;;;5094315;28;20441;-87
2021/05/30 09:06:57;;;;;;;2.70;2.17;;;18.10;92.30;;;;;;5095958;28;20448;-84
2021/05/30 09:09:23;;;;;;;2.40;2.20;;;19.00;91.50;;;;;;5095945;28;20510;-86
2021/05/30 09:11:51;;;;;;;4.30;2.23;;;19.90;88.40;;;;;;5096272;28;20971;-87
2021/05/30 09:14:20;;;;;;;2.23;2.03;;;20.00;90.00;;;;;;5095636;28;20897;-85
2021/05/30 09:16:54;;;;;;;2.10;1.90;;;19.50;67.40;;;;;;5096116;28;20823;-89
2021/05/30 09:19:42;;;;;;;2.20;2.00;;;20.30;91.50;;;;;;5093928;28;20494;-87
2021/05/30 09:22:19;;;;;;;2.23;2.00;;;20.80;68.10;;;;;;5095530;28;20523;-86
2021/05/30 09:25:00;;;;;;;2.40;1.70;;;21.50;84.00;;;;;;5094863;28;20444;-86
2021/05/30 09:27:27;;;;;;;2.10;1.90;;;;;;;;;;5095525;28;20575;-86
2021/05/30 09:30:12;;;;;;;2.60;2.27;;;19.20;89.40;;;;;;5095545;28;20510;-85
2021/05/30 09:33:18;;;;;;;4.43;2.80;;;19.70;67.20;;;;;;5059646;28;20447;-86
2021/05/30 09:35:50;;;;;;;2.47;2.27;;;20.20;66.10;;;;;;5094156;28;20445;-86
2021/05/30 09:38:20;;;;;;;2.43;2.07;;;21.20;65.30;;;;;;5095184;28;20987;-86
2021/05/30 09:40:48;;;;;;;2.23;2.13;;;20.70;69.30;;;;;;5094996;28;20824;-85
2021/05/30 09:43:16;;;;;;;3.17;2.17;;;20.40;64.90;;;;;;5059376;28;20448;-86
2021/05/30 09:46:00;;;;;;;2.70;2.30;;;20.60;86.50;;;;;;5093697;28;20444;-87
2021/05/30 09:48:26;;;;;;;2.53;2.20;;;21.20;83.10;;;;;;5095269;28;20531;-88
2021/05/30 09:51:05;;;;;;;2.73;2.27;;;21.30;71.80;;;;;;5094596;28;20475;-86
2021/05/30 09:53:51;;;;;;;2.57;2.37;;;20.70;62.90;;;;;;5095191;28;20452;-93
2021/05/30 09:56:37;;;;;;;4.30;2.67;;;21.20;90.00;;;;;;5097433;27;20463;-88
2021/05/30 09:59:07;;;;;;;2.90;2.40;;;20.90;62.90;;;;;;5098952;28;20484;-92
2021/05/30 10:02:03;;;;;;;5.33;2.73;;;21.00;64.20;;;;;;5096299;28;20462;-92
2021/05/30 10:04:31;;;;;;;4.00;2.97;;;21.30;86.40;;;;;;5093966;28;20467;-89
2021/05/30 10:06:58;;;;;;;3.87;3.17;;;;;;;;;;5095002;28;20452;-88
2021/05/30 10:09:26;;;;;;;2.97;2.77;;;21.30;93.80;;;;;;5094722;28;20461;-88
2021/05/30 10:11:53;;;;;;;3.00;2.70;;;;;;;;;;5094650;28;20448;-88
2021/05/30 10:14:19;;;;;;;3.33;2.60;;;;;;;;;;5094635;28;20453;-89
2021/05/30 10:16:46;;;;;;;3.40;3.10;;;;;;;;;;5094625;28;20490;-88
2021/05/30 10:19:16;;;;;;;3.53;2.67;;;21.30;70.90;;;;;;5093278;28;20493;-87
2021/05/30 10:21:46;;;;;;;2.40;2.20;;;20.40;90.30;;;;;;5094431;28;20445;-88
2021/05/30 10:24:13;;;;;;;3.07;2.77;;;21.00;73.40;;;;;;5094562;28;20448;-88
2021/05/30 10:26:41;;;;;;;3.13;2.70;;;21.80;94.70;;;;;;5094088;28;20449;-88
2021/05/30 10:29:12;;;;;;;3.87;3.47;;;22.70;79.70;;;;;;5094340;28;20449;-88
2021/05/30 10:31:40;;;;;;;2.90;2.70;;;22.50;86.20;;;;;;5094416;28;20444;-88
2021/05/30 10:34:21;;;;;;;4.00;2.93;;;22.60;89.40;;;;;;5092818;28;20441;-88
2021/05/30 10:37:24;;;;;;;3.57;2.83;;;21.80;84.40;;;;;;5091887;28;20445;-87
2021/05/30 10:39:51;;;;;;;5.53;2.07;;;22.30;89.40;;;;;;5105155;28;20568;-88
2021/05/30 10:42:22;;;;;;;2.40;2.20;;;22.10;83.90;;;;;;5104818;28;20464;-88
2021/05/30 10:44:50;;;;;;;2.83;2.20;;;21.20;60.50;;;;;;5107051;28;20808;-88
2021/05/30 10:47:16;;;;;;;3.20;2.87;;;;;;;;;;5100002;28;20457;-91
2021/05/30 10:50:08;;;;;;;8.90;3.27;;;20.90;81.10;;;;;;5097091;27;20463;-93
2021/05/30 10:52:35;;;;;;;3.77;3.00;;;21.10;68.80;;;;;;5094617;28;20453;-87
2021/05/30 10:55:12;;;;;;;2.97;2.77;;;22.10;71.20;;;;;;5093911;28;20449;-87
2021/05/30 10:57:45;;;;;;;2.97;2.50;;;22.30;64.80;;;;;;5093227;28;20480;-87
2021/05/30 11:00:36;;;;;;;3.20;2.87;;;23.20;66.60;;;;;;5093719;28;20528;-90
2021/05/30 11:03:08;;;;;;;5.03;2.77;;;23.20;74.00;;;;;;5093949;28;20920;-88
2021/05/30 11:05:45;;;;;;;3.10;2.70;;;24.10;79.40;;;;;;5095846;28;20461;-94
2021/05/30 11:08:49;;;;;;;3.60;2.67;;;23.60;81.80;;;;;;5094589;28;20428;-93
2021/05/30 11:11:24;;;;;;;3.13;2.90;;;22.40;66.60;;;;;;5094097;28;20468;-93
2021/05/30 11:13:55;;;;;;;4.00;3.30;;;22.50;59.50;;;;;;5093715;28;21072;-87
2021/05/30 11:16:26;;;;;;;3.30;3.00;;;22.00;60.80;;;;;;5092936;28;20444;-87
2021/05/30 11:19:00;;;;;;;2.77;2.57;;;21.60;84.50;;;;;;5101215;28;20464;-89
2021/05/30 11:21:29;;;;;;;4.70;2.73;;;22.10;82.00;;;;;;5104489;28;20448;-87
2021/05/30 11:23:56;;;;;;;3.30;3.00;;;21.30;80.90;;;;;;5102991;28;20474;-89
2021/05/30 11:26:22;;;;;;;3.50;2.60;;;;;;;;;;5111344;28;20442;-89
2021/05/30 11:28:49;;;;;;;3.90;2.93;;;;;;;;;;5114444;28;20451;-87
2021/05/30 11:31:18;;;;;;;3.20;3.00;;;21.50;92.80;;;;;;5114708;28;20440;-85
2021/05/30 11:33:46;;;;;;;4.57;2.70;;;22.20;66.20;;;;;;5112262;28;20768;-86
2021/05/30 11:36:33;;;;;;;3.30;2.87;;;22.50;75.70;;;;;;5113118;28;20494;-91
2021/05/30 11:39:07;;;;;;;3.10;2.80;;;21.20;67.40;;;;;;5111714;28;20822;-89
2021/05/30 11:41:35;;;;;;;2.53;2.33;;;20.50;78.60;;;;;;5111657;28;21025;-88
2021/05/30 11:44:08;;;;;;;3.20;2.70;;;19.70;77.00;;;;;;5114120;28;20496;-89
2021/05/30 11:46:39;;;;;;;3.37;2.30;;;20.60;76.40;;;;;;5113829;28;20915;-90
2021/05/30 11:49:11;;;;;;;3.10;2.80;;;21.30;64.10;;;;;;5111981;28;20816;-89
2021/05/30 11:51:58;;;;;;;5.27;2.87;;;21.90;77.80;;;;;;5113335;28;20444;-86
2021/05/30 11:54:26;;;;;;;2.63;2.17;;;21.60;59.30;;;;;;5113295;28;20448;-88
2021/05/30 11:56:57;;;;;;;4.43;2.37;;;21.30;62.10;;;;;;5113627;28;20641;-88
2021/05/30 11:59:38;;;;;;;4.20;2.77;;;21.40;80.80;;;;;;5113225;28;20910;-89
2021/05/30 12:02:06;;;;;;;2.60;2.40;;;21.40;82.50;;;;;;5113198;28;20462;-88
2021/05/30 12:04:36;;;;;;;2.80;2.60;;;20.80;65.50;;;;;;5112081;28;20802;-88
2021/05/30 12:07:03;;;;;;;4.33;2.70;;;21.20;61.00;;;;;;5113048;28;20443;-91
2021/05/30 12:09:51;;;;;;;2.73;2.47;;;21.10;73.90;;;;;;5115115;27;20471;-86
2021/05/30 12:12:35;;;;;;;3.70;2.40;;;19.90;73.20;;;;;;5107925;28;20433;-95
2021/05/30 12:15:10;;;;;;;2.83;2.63;;;20.60;59.30;;;;;;5100639;28;20438;-90
2021/05/30 12:17:38;;;;;;;4.30;2.33;;;21.20;64.40;;;;;;5097668;28;20439;-87
2021/05/30 12:20:08;;;;;;;3.17;2.97;;;21.30;79.20;;;;;;5091180;28;20520;-86
2021/05/30 12:22:35;;;;;;;2.53;2.33;;;21.20;88.40;;;;;;5092101;28;20527;-86
2021/05/30 12:25:08;;;;;;;2.60;2.40;;;21.00;62.60;;;;;;5092012;28;20471;-87
2021/05/30 12:27:35;;;;;;;2.47;2.27;;;20.80;69.40;;;;;;5092063;28;20440;-86
2021/05/30 12:30:04;;;;;;;2.57;2.10;;;20.50;61.20;;;;;;5094206;28;20433;-93
2021/05/30 12:32:33;;;;;;;2.60;2.20;;;21.60;80.30;;;;;;5092672;28;20449;-85
2021/05/30 12:35:01;;;;;;;2.43;1.90;;;20.50;74.40;;;;;;5094773;28;20441;-91
2021/05/30 12:37:42;;;;;;;2.73;2.50;;;20.10;84.10;;;;;;5092637;28;20439;-88
2021/05/30 12:40:11;;;;;;;3.53;2.20;;;20.50;82.40;;;;;;5094376;28;20557;-86
2021/05/30 12:42:39;;;;;;;2.77;2.00;;;;;;;;;;5092803;28;20453;-88
2021/05/30 12:45:09;;;;;;;2.93;2.23;;;20.80;74.40;;;;;;5093266;28;20447;-90
2021/05/30 12:47:42;;;;;;;2.80;2.13;;;21.40;58.50;;;;;;5092186;28;20447;-88
2021/05/30 12:50:12;;;;;;;2.73;2.43;;;21.40;57.40;;;;;;5093882;28;20902;-88
2021/05/30 12:52:46;;;;;;;5.73;2.00;;;22.50;87.60;;;;;;5092189;28;20451;-89
2021/05/30 12:55:14;;;;;;;3.90;2.50;;;22.10;78.70;;;;;;5090699;28;20478;-87
2021/05/30 12:57:43;;;;;;;2.40;2.20;;;20.70;55.70;;;;;;5092274;28;20476;-90
2021/05/30 13:00:11;;;;;;;2.40;2.20;;;21.30;84.60;;;;;;5092561;28;20483;-87
2021/05/30 13:02:38;;;;;;;4.23;2.30;;;;;;;;;;5096112;28;20943;-87
2021/05/30 13:05:06;;;;;;;2.67;2.17;;;21.80;59.00;;;;;;5094828;28;20445;-84
2021/05/30 13:07:34;;;;;;;2.97;2.47;;;22.20;81.30;;;;;;5095633;28;20463;-85
2021/05/30 13:10:04;;;;;;;2.20;2.00;;;22.00;81.00;;;;;;5095815;28;20464;-85
2021/05/30 13:12:39;;;;;;;2.40;2.07;;;23.10;70.00;;;;;;5095870;28;20449;-85
2021/05/30 13:15:15;;;;;;;2.03;1.93;;;23.10;71.90;;;;;;5095284;28;20616;-85
2021/05/30 13:17:42;;;;;;;2.40;2.20;;;22.50;51.60;;;;;;5095954;28;20440;-85
2021/05/30 13:20:15;;;;;;;2.67;2.43;;;21.90;80.70;;;;;;5094166;28;20496;-83
2021/05/30 13:22:54;;;;;;;2.97;2.73;;;22.30;67.70;;;;;;5095735;28;20966;-87
2021/05/30 13:25:28;;;;;;;3.60;2.93;;;23.30;88.30;;;;;;5096420;28;20439;-91
2021/05/30 13:28:18;;;;;;;3.07;2.80;;;23.20;61.00;;;;;;5096190;28;20436;-90
2021/05/30 13:30:47;;;;;;;2.40;2.20;;;23.30;57.30;;;;;;5095896;28;20502;-91
2021/05/30 13:33:13;;;;;;;4.10;2.60;;;;;;;;;;5096162;28;20448;-89